sensor_id;sensor_type;location;lat;lon;timestamp;pressure;altitude;pressure_sealevel;temperature;humidity
35908;BME280;22003;50.320;8.054;2024-02-21T00:00:36;100505.16;;;6.17;100.00
35908;BME280;22003;50.320;8.054;2024-02-21T00:03:03;100507.63;;;6.20;100.00
35908;BME280;22003;50.320;8.054;2024-02-21T00:05:29;100479.78;;;5.78;100.00
35908;BME280;22003;50.320;8.054;2024-02-21T00:07:54;100497.66;;;6.27;100.00
35908;BME280;22003;50.320;8.054;2024-02-21T00:10:20;100490.56;;;6.10;100.00
35908;BME280;22003;50.320;8.054;2024-02-21T00:12:45;100491.56;;;6.07;100.00
35908;BME280;22003;50.320;8.054;2024-02-21T00:15:11;100489.44;;;5.97;100.00
35908;BME280;22003;50.320;8.054;2024-02-21T00:17:37;100494.63;;;5.98;100.00
35908;BME280;22003;50.320;8.054;2024-02-21T00:20:02;100492.75;;;5.81;100.00
35908;BME280;22003;50.320;8.054;2024-02-21T00:22:27;100497.09;;;5.82;100.00
35908;BME280;22003;50.320;8.054;2024-02-21T00:24:58;100473.59;;;5.79;100.00
35908;BME280;22003;50.320;8.054;2024-02-21T00:27:23;100489.16;;;5.84;100.00
35908;BME280;22003;50.320;8.054;2024-02-21T00:29:49;100479.69;;;5.80;100.00
35908;BME280;22003;50.320;8.054;2024-02-21T00:32:14;100492.13;;;5.76;100.00
35908;BME280;22003;50.320;8.054;2024-02-21T00:34:39;100504.91;;;5.65;100.00
35908;BME280;22003;50.320;8.054;2024-02-21T00:37:04;100506.69;;;5.65;100.00
35908;BME280;22003;50.320;8.054;2024-02-21T00:39:30;100496.09;;;5.66;100.00
35908;BME280;22003;50.320;8.054;2024-02-21T00:41:56;100494.25;;;5.68;100.00
35908;BME280;22003;50.320;8.054;2024-02-21T00:44:21;100495.19;;;5.67;100.00
35908;BME280;22003;50.320;8.054;2024-02-21T00:46:46;100499.50;;;5.68;100.00
35908;BME280;22003;50.320;8.054;2024-02-21T00:49:12;100502.78;;;5.73;100.00
35908;BME280;22003;50.320;8.054;2024-02-21T00:51:37;100505.91;;;5.63;100.00
35908;BME280;22003;50.320;8.054;2024-02-21T00:54:03;100511.25;;;5.80;100.00
35908;BME280;22003;50.320;8.054;2024-02-21T00:56:28;100509.53;;;5.79;100.00
35908;BME280;22003;50.320;8.054;2024-02-21T00:58:54;100451.47;;;5.46;100.00
35908;BME280;22003;50.320;8.054;2024-02-21T01:01:26;100501.50;;;5.82;100.00
35908;BME280;22003;50.320;8.054;2024-02-21T01:03:51;100505.38;;;5.94;100.00
35908;BME280;22003;50.320;8.054;2024-02-21T01:06:20;100498.28;;;5.96;100.00
35908;BME280;22003;50.320;8.054;2024-02-21T01:08:49;100485.81;;;5.99;100.00
35908;BME280;22003;50.320;8.054;2024-02-21T01:11:15;100475.78;;;6.07;100.00
35908;BME280;22003;50.320;8.054;2024-02-21T01:13:40;100485.53;;;6.05;100.00
35908;BME280;22003;50.320;8.054;2024-02-21T01:16:05;100476.44;;;6.13;100.00
35908;BME280;22003;50.320;8.054;2024-02-21T01:18:32;100478.75;;;6.19;100.00
35908;BME280;22003;50.320;8.054;2024-02-21T01:20:57;100481.47;;;6.17;100.00
35908;BME280;22003;50.320;8.054;2024-02-21T01:23:23;100471.94;;;6.15;100.00
35908;BME280;22003;50.320;8.054;2024-02-21T01:25:48;100465.69;;;6.17;100.00
35908;BME280;22003;50.320;8.054;2024-02-21T01:28:13;100463.91;;;6.18;100.00
35908;BME280;22003;50.320;8.054;2024-02-21T01:30:38;100453.84;;;6.26;100.00
35908;BME280;22003;50.320;8.054;2024-02-21T01:33:04;100448.81;;;6.21;100.00
35908;BME280;22003;50.320;8.054;2024-02-21T01:35:29;100449.66;;;6.22;100.00
35908;BME280;22003;50.320;8.054;2024-02-21T01:37:54;100445.31;;;6.21;100.00
35908;BME280;22003;50.320;8.054;2024-02-21T01:40:19;100425.75;;;6.26;100.00
35908;BME280;22003;50.320;8.054;2024-02-21T01:42:45;100406.13;;;6.33;100.00
35908;BME280;22003;50.320;8.054;2024-02-21T01:45:10;100424.69;;;6.30;100.00
35908;BME280;22003;50.320;8.054;2024-02-21T01:47:36;100360.22;;;5.86;100.00
35908;BME280;22003;50.320;8.054;2024-02-21T01:50:02;100427.19;;;6.33;100.00
35908;BME280;22003;50.320;8.054;2024-02-21T01:52:29;100429.28;;;6.61;100.00
35908;BME280;22003;50.320;8.054;2024-02-21T01:54:56;100429.50;;;6.57;100.00
35908;BME280;22003;50.320;8.054;2024-02-21T01:57:22;100425.94;;;6.41;100.00
35908;BME280;22003;50.320;8.054;2024-02-21T01:59:48;100435.06;;;6.33;100.00
35908;BME280;22003;50.320;8.054;2024-02-21T02:02:13;100426.16;;;6.36;100.00
35908;BME280;22003;50.320;8.054;2024-02-21T02:04:38;100397.34;;;6.16;100.00
35908;BME280;22003;50.320;8.054;2024-02-21T02:07:06;100425.44;;;6.32;100.00
35908;BME280;22003;50.320;8.054;2024-02-21T02:09:31;100421.44;;;6.43;100.00
35908;BME280;22003;50.320;8.054;2024-02-21T02:11:57;100414.06;;;6.32;100.00
35908;BME280;22003;50.320;8.054;2024-02-21T02:14:23;100370.88;;;6.19;100.00
35908;BME280;22003;50.320;8.054;2024-02-21T02:16:48;100399.94;;;6.34;100.00
35908;BME280;22003;50.320;8.054;2024-02-21T02:19:14;100396.97;;;6.41;100.00
35908;BME280;22003;50.320;8.054;2024-02-21T02:21:46;100344.34;;;6.06;100.00
35908;BME280;22003;50.320;8.054;2024-02-21T02:24:11;100387.31;;;6.41;100.00
35908;BME280;22003;50.320;8.054;2024-02-21T02:26:38;100385.50;;;6.42;100.00
35908;BME280;22003;50.320;8.054;2024-02-21T02:29:04;100378.16;;;6.31;100.00
35908;BME280;22003;50.320;8.054;2024-02-21T02:31:29;100382.03;;;6.41;100.00
35908;BME280;22003;50.320;8.054;2024-02-21T02:33:54;100377.06;;;6.52;100.00
35908;BME280;22003;50.320;8.054;2024-02-21T02:36:19;100392.66;;;6.40;100.00
35908;BME280;22003;50.320;8.054;2024-02-21T02:38:45;100385.97;;;6.32;100.00
35908;BME280;22003;50.320;8.054;2024-02-21T02:41:10;100389.38;;;6.52;100.00
35908;BME280;22003;50.320;8.054;2024-02-21T02:43:35;100382.25;;;6.54;100.00
35908;BME280;22003;50.320;8.054;2024-02-21T02:46:02;100382.94;;;6.75;100.00
35908;BME280;22003;50.320;8.054;2024-02-21T02:48:27;100373.91;;;6.63;100.00
35908;BME280;22003;50.320;8.054;2024-02-21T02:50:52;100373.56;;;6.69;100.00
35908;BME280;22003;50.320;8.054;2024-02-21T02:53:17;100347.41;;;6.49;100.00
35908;BME280;22003;50.320;8.054;2024-02-21T02:55:43;100348.31;;;6.98;100.00
35908;BME280;22003;50.320;8.054;2024-02-21T02:58:08;100343.63;;;6.87;100.00
35908;BME280;22003;50.320;8.054;2024-02-21T03:00:34;100345.63;;;6.67;100.00
35908;BME280;22003;50.320;8.054;2024-02-21T03:03:01;100336.81;;;6.68;100.00
35908;BME280;22003;50.320;8.054;2024-02-21T03:05:28;100327.34;;;6.64;100.00
35908;BME280;22003;50.320;8.054;2024-02-21T03:07:54;100314.75;;;6.53;100.00
35908;BME280;22003;50.320;8.054;2024-02-21T03:10:19;100310.66;;;6.80;100.00
35908;BME280;22003;50.320;8.054;2024-02-21T03:12:44;100306.38;;;6.62;100.00
35908;BME280;22003;50.320;8.054;2024-02-21T03:15:10;100304.22;;;6.53;100.00
35908;BME280;22003;50.320;8.054;2024-02-21T03:17:35;100298.56;;;6.43;100.00
35908;BME280;22003;50.320;8.054;2024-02-21T03:20:02;100256.78;;;6.37;100.00
35908;BME280;22003;50.320;8.054;2024-02-21T03:22:30;100307.19;;;6.80;100.00
35908;BME280;22003;50.320;8.054;2024-02-21T03:24:55;100300.88;;;6.67;100.00
35908;BME280;22003;50.320;8.054;2024-02-21T03:27:21;100294.28;;;6.58;100.00
35908;BME280;22003;50.320;8.054;2024-02-21T03:29:46;100277.81;;;6.54;100.00
35908;BME280;22003;50.320;8.054;2024-02-21T03:32:11;100285.38;;;6.60;100.00
35908;BME280;22003;50.320;8.054;2024-02-21T03:34:36;100289.97;;;6.57;100.00
35908;BME280;22003;50.320;8.054;2024-02-21T03:37:02;100309.56;;;6.51;100.00
35908;BME280;22003;50.320;8.054;2024-02-21T03:39:31;100240.22;;;6.02;100.00
35908;BME280;22003;50.320;8.054;2024-02-21T03:41:56;100312.59;;;6.44;100.00
35908;BME280;22003;50.320;8.054;2024-02-21T03:44:22;100321.88;;;6.51;100.00
35908;BME280;22003;50.320;8.054;2024-02-21T03:46:48;100320.56;;;6.42;100.00
35908;BME280;22003;50.320;8.054;2024-02-21T03:49:13;100313.38;;;6.46;100.00
35908;BME280;22003;50.320;8.054;2024-02-21T03:51:41;100312.59;;;6.61;100.00
35908;BME280;22003;50.320;8.054;2024-02-21T03:54:06;100304.59;;;6.63;100.00
35908;BME280;22003;50.320;8.054;2024-02-21T03:56:32;100304.06;;;6.56;100.00
35908;BME280;22003;50.320;8.054;2024-02-21T03:58:57;100304.53;;;6.47;100.00
35908;BME280;22003;50.320;8.054;2024-02-21T04:01:23;100301.16;;;6.45;100.00
35908;BME280;22003;50.320;8.054;2024-02-21T04:03:48;100304.59;;;6.63;100.00
35908;BME280;22003;50.320;8.054;2024-02-21T04:06:13;100293.88;;;6.50;100.00
35908;BME280;22003;50.320;8.054;2024-02-21T04:08:39;100294.53;;;6.53;100.00
35908;BME280;22003;50.320;8.054;2024-02-21T04:11:04;100291.28;;;6.48;100.00
35908;BME280;22003;50.320;8.054;2024-02-21T04:13:29;100290.06;;;6.38;100.00
35908;BME280;22003;50.320;8.054;2024-02-21T04:15:54;100285.59;;;6.40;100.00
35908;BME280;22003;50.320;8.054;2024-02-21T04:18:20;100270.78;;;6.38;100.00
35908;BME280;22003;50.320;8.054;2024-02-21T04:20:45;100273.38;;;6.39;100.00
35908;BME280;22003;50.320;8.054;2024-02-21T04:23:10;100243.75;;;6.18;100.00
35908;BME280;22003;50.320;8.054;2024-02-21T04:25:36;100274.66;;;6.48;100.00
35908;BME280;22003;50.320;8.054;2024-02-21T04:28:01;100272.81;;;6.50;100.00
35908;BME280;22003;50.320;8.054;2024-02-21T04:30:27;100274.84;;;6.45;100.00
35908;BME280;22003;50.320;8.054;2024-02-21T04:32:53;100273.81;;;6.47;100.00
35908;BME280;22003;50.320;8.054;2024-02-21T04:35:18;100259.72;;;6.48;100.00
35908;BME280;22003;50.320;8.054;2024-02-21T04:37:43;100253.13;;;6.57;100.00
35908;BME280;22003;50.320;8.054;2024-02-21T04:40:10;100254.63;;;6.45;100.00
35908;BME280;22003;50.320;8.054;2024-02-21T04:42:35;100249.13;;;6.50;100.00
35908;BME280;22003;50.320;8.054;2024-02-21T04:45:00;100254.78;;;6.42;100.00
35908;BME280;22003;50.320;8.054;2024-02-21T04:47:26;100262.75;;;6.41;100.00
35908;BME280;22003;50.320;8.054;2024-02-21T04:49:51;100268.13;;;6.55;100.00
35908;BME280;22003;50.320;8.054;2024-02-21T04:52:17;100221.63;;;6.22;100.00
35908;BME280;22003;50.320;8.054;2024-02-21T04:54:42;100250.03;;;6.49;100.00
35908;BME280;22003;50.320;8.054;2024-02-21T04:57:07;100259.78;;;6.47;100.00
35908;BME280;22003;50.320;8.054;2024-02-21T04:59:35;100255.63;;;6.43;100.00
35908;BME280;22003;50.320;8.054;2024-02-21T05:02:01;100253.16;;;6.40;100.00
35908;BME280;22003;50.320;8.054;2024-02-21T05:04:26;100250.44;;;6.41;100.00
35908;BME280;22003;50.320;8.054;2024-02-21T05:06:51;100246.97;;;6.41;100.00
35908;BME280;22003;50.320;8.054;2024-02-21T05:09:16;100256.66;;;6.40;100.00
35908;BME280;22003;50.320;8.054;2024-02-21T05:11:42;100251.53;;;6.37;100.00
35908;BME280;22003;50.320;8.054;2024-02-21T05:14:07;100246.44;;;6.34;100.00
35908;BME280;22003;50.320;8.054;2024-02-21T05:16:32;100245.91;;;6.27;100.00
35908;BME280;22003;50.320;8.054;2024-02-21T05:18:57;100198.28;;;5.99;100.00
35908;BME280;22003;50.320;8.054;2024-02-21T05:21:23;100187.59;;;6.02;100.00
35908;BME280;22003;50.320;8.054;2024-02-21T05:23:49;100241.50;;;6.28;100.00
35908;BME280;22003;50.320;8.054;2024-02-21T05:26:24;100185.91;;;6.01;100.00
35908;BME280;22003;50.320;8.054;2024-02-21T05:28:50;100235.22;;;6.30;100.00
35908;BME280;22003;50.320;8.054;2024-02-21T05:31:16;100238.94;;;6.26;100.00
35908;BME280;22003;50.320;8.054;2024-02-21T05:33:42;100230.47;;;6.37;100.00
35908;BME280;22003;50.320;8.054;2024-02-21T05:36:08;100228.25;;;6.29;100.00
35908;BME280;22003;50.320;8.054;2024-02-21T05:38:33;100220.59;;;6.25;100.00
35908;BME280;22003;50.320;8.054;2024-02-21T05:40:58;100225.34;;;6.18;100.00
35908;BME280;22003;50.320;8.054;2024-02-21T05:43:23;100219.28;;;6.16;100.00
35908;BME280;22003;50.320;8.054;2024-02-21T05:45:49;100209.88;;;6.12;100.00
35908;BME280;22003;50.320;8.054;2024-02-21T05:48:14;100203.91;;;6.08;100.00
35908;BME280;22003;50.320;8.054;2024-02-21T05:50:39;100207.09;;;5.98;100.00
35908;BME280;22003;50.320;8.054;2024-02-21T05:53:05;100203.06;;;5.91;100.00
35908;BME280;22003;50.320;8.054;2024-02-21T05:55:30;100199.53;;;5.92;100.00
35908;BME280;22003;50.320;8.054;2024-02-21T05:57:55;100193.94;;;5.80;100.00
35908;BME280;22003;50.320;8.054;2024-02-21T06:00:21;100209.25;;;5.90;100.00
35908;BME280;22003;50.320;8.054;2024-02-21T06:02:46;100215.38;;;5.90;100.00
35908;BME280;22003;50.320;8.054;2024-02-21T06:05:11;100207.56;;;5.89;100.00
35908;BME280;22003;50.320;8.054;2024-02-21T06:07:38;100206.47;;;5.93;100.00
35908;BME280;22003;50.320;8.054;2024-02-21T06:10:03;100213.28;;;5.97;100.00
35908;BME280;22003;50.320;8.054;2024-02-21T06:12:29;100218.69;;;5.94;100.00
35908;BME280;22003;50.320;8.054;2024-02-21T06:14:54;100220.44;;;6.28;100.00
35908;BME280;22003;50.320;8.054;2024-02-21T06:17:19;100202.00;;;5.95;100.00
35908;BME280;22003;50.320;8.054;2024-02-21T06:19:45;100193.63;;;5.87;100.00
35908;BME280;22003;50.320;8.054;2024-02-21T06:22:10;100190.75;;;6.08;100.00
35908;BME280;22003;50.320;8.054;2024-02-21T06:24:36;100181.56;;;5.82;100.00
35908;BME280;22003;50.320;8.054;2024-02-21T06:27:04;100173.69;;;5.65;100.00
35908;BME280;22003;50.320;8.054;2024-02-21T06:29:33;100133.66;;;5.25;100.00
35908;BME280;22003;50.320;8.054;2024-02-21T06:31:59;100182.66;;;5.44;100.00
35908;BME280;22003;50.320;8.054;2024-02-21T06:34:24;100180.09;;;5.42;100.00
35908;BME280;22003;50.320;8.054;2024-02-21T06:36:50;100175.16;;;5.36;100.00
35908;BME280;22003;50.320;8.054;2024-02-21T06:39:15;100099.78;;;4.85;100.00
35908;BME280;22003;50.320;8.054;2024-02-21T06:41:40;100196.56;;;5.28;100.00
35908;BME280;22003;50.320;8.054;2024-02-21T06:44:06;100142.81;;;4.99;100.00
35908;BME280;22003;50.320;8.054;2024-02-21T06:46:31;100183.66;;;5.24;100.00
35908;BME280;22003;50.320;8.054;2024-02-21T06:48:59;100175.84;;;5.22;100.00
35908;BME280;22003;50.320;8.054;2024-02-21T06:51:25;100172.44;;;5.20;100.00
35908;BME280;22003;50.320;8.054;2024-02-21T06:53:50;100167.72;;;5.27;100.00
35908;BME280;22003;50.320;8.054;2024-02-21T06:56:16;100187.69;;;5.48;100.00
35908;BME280;22003;50.320;8.054;2024-02-21T06:58:41;100182.81;;;5.41;100.00
35908;BME280;22003;50.320;8.054;2024-02-21T07:01:07;100183.25;;;5.49;100.00
35908;BME280;22003;50.320;8.054;2024-02-21T07:03:32;100178.84;;;5.49;100.00
35908;BME280;22003;50.320;8.054;2024-02-21T07:05:58;100171.69;;;5.53;100.00
35908;BME280;22003;50.320;8.054;2024-02-21T07:08:23;100171.22;;;5.62;100.00
35908;BME280;22003;50.320;8.054;2024-02-21T07:10:48;100175.16;;;5.71;100.00
35908;BME280;22003;50.320;8.054;2024-02-21T07:13:13;100125.78;;;5.43;100.00
35908;BME280;22003;50.320;8.054;2024-02-21T07:15:40;100185.72;;;5.87;100.00
35908;BME280;22003;50.320;8.054;2024-02-21T07:18:06;100189.78;;;5.94;100.00
35908;BME280;22003;50.320;8.054;2024-02-21T07:20:31;100202.91;;;6.11;100.00
35908;BME280;22003;50.320;8.054;2024-02-21T07:22:58;100152.19;;;5.92;100.00
35908;BME280;22003;50.320;8.054;2024-02-21T07:25:23;100196.16;;;6.23;100.00
35908;BME280;22003;50.320;8.054;2024-02-21T07:27:49;100189.63;;;6.30;100.00
35908;BME280;22003;50.320;8.054;2024-02-21T07:30:14;100168.06;;;6.23;99.97
35908;BME280;22003;50.320;8.054;2024-02-21T07:32:39;100187.88;;;6.46;100.00
35908;BME280;22003;50.320;8.054;2024-02-21T07:35:05;100114.16;;;6.30;99.73
35908;BME280;22003;50.320;8.054;2024-02-21T07:37:30;100187.91;;;6.78;97.96
35908;BME280;22003;50.320;8.054;2024-02-21T07:39:56;100181.97;;;6.74;96.92
35908;BME280;22003;50.320;8.054;2024-02-21T07:42:21;100176.94;;;6.85;97.47
35908;BME280;22003;50.320;8.054;2024-02-21T07:44:46;100193.78;;;6.83;96.60
35908;BME280;22003;50.320;8.054;2024-02-21T07:47:11;100188.78;;;6.94;96.53
35908;BME280;22003;50.320;8.054;2024-02-21T07:49:44;100180.94;;;6.93;96.18
35908;BME280;22003;50.320;8.054;2024-02-21T07:52:09;100113.16;;;6.49;94.83
35908;BME280;22003;50.320;8.054;2024-02-21T07:54:35;100167.84;;;6.91;94.44
35908;BME280;22003;50.320;8.054;2024-02-21T07:57:00;100177.03;;;7.00;94.83
35908;BME280;22003;50.320;8.054;2024-02-21T07:59:25;100179.22;;;7.07;95.19
35908;BME280;22003;50.320;8.054;2024-02-21T08:01:51;100166.81;;;7.09;94.11
35908;BME280;22003;50.320;8.054;2024-02-21T08:04:16;100169.28;;;7.12;93.75
35908;BME280;22003;50.320;8.054;2024-02-21T08:06:41;100159.06;;;7.22;93.36
35908;BME280;22003;50.320;8.054;2024-02-21T08:09:06;100151.31;;;7.19;92.77
35908;BME280;22003;50.320;8.054;2024-02-21T08:11:32;100145.34;;;7.76;92.44
35908;BME280;22003;50.320;8.054;2024-02-21T08:13:57;100138.81;;;7.53;90.71
35908;BME280;22003;50.320;8.054;2024-02-21T08:16:23;100141.13;;;7.43;91.88
35908;BME280;22003;50.320;8.054;2024-02-21T08:18:48;100137.22;;;7.50;92.41
35908;BME280;22003;50.320;8.054;2024-02-21T08:21:13;100136.63;;;7.45;91.90
35908;BME280;22003;50.320;8.054;2024-02-21T08:23:38;100139.59;;;7.69;91.10
35908;BME280;22003;50.320;8.054;2024-02-21T08:26:04;100132.44;;;7.57;90.66
35908;BME280;22003;50.320;8.054;2024-02-21T08:28:30;100131.84;;;7.66;91.94
35908;BME280;22003;50.320;8.054;2024-02-21T08:30:55;100140.06;;;7.61;91.64
35908;BME280;22003;50.320;8.054;2024-02-21T08:33:20;100131.84;;;7.66;91.18
35908;BME280;22003;50.320;8.054;2024-02-21T08:35:50;100136.97;;;7.69;90.59
35908;BME280;22003;50.320;8.054;2024-02-21T08:38:15;100128.88;;;7.72;90.19
35908;BME280;22003;50.320;8.054;2024-02-21T08:40:41;100117.22;;;7.90;89.54
35908;BME280;22003;50.320;8.054;2024-02-21T08:43:06;100103.81;;;7.79;89.19
35908;BME280;22003;50.320;8.054;2024-02-21T08:45:31;100099.78;;;8.02;89.04
35908;BME280;22003;50.320;8.054;2024-02-21T08:47:56;100106.28;;;8.11;88.55
35908;BME280;22003;50.320;8.054;2024-02-21T08:50:22;100106.94;;;8.29;88.84
35908;BME280;22003;50.320;8.054;2024-02-21T08:52:47;100088.63;;;8.26;87.81
35908;BME280;22003;50.320;8.054;2024-02-21T08:55:12;100091.72;;;8.32;86.70
35908;BME280;22003;50.320;8.054;2024-02-21T08:57:38;100080.06;;;8.36;86.51
35908;BME280;22003;50.320;8.054;2024-02-21T09:00:04;100094.28;;;8.48;86.46
35908;BME280;22003;50.320;8.054;2024-02-21T09:02:40;100020.78;;;7.99;84.48
35908;BME280;22003;50.320;8.054;2024-02-21T09:05:06;100076.28;;;8.40;85.39
35908;BME280;22003;50.320;8.054;2024-02-21T09:07:31;100073.25;;;8.32;84.38
35908;BME280;22003;50.320;8.054;2024-02-21T09:09:57;100029.03;;;8.21;84.31
35908;BME280;22003;50.320;8.054;2024-02-21T09:12:22;100062.69;;;8.46;83.95
35908;BME280;22003;50.320;8.054;2024-02-21T09:14:47;100079.78;;;8.41;83.10
35908;BME280;22003;50.320;8.054;2024-02-21T09:17:15;100050.47;;;8.17;82.87
35908;BME280;22003;50.320;8.054;2024-02-21T09:19:42;100047.63;;;8.34;83.06
35908;BME280;22003;50.320;8.054;2024-02-21T09:22:07;100058.00;;;8.37;82.91
35908;BME280;22003;50.320;8.054;2024-02-21T09:24:32;100056.50;;;8.60;80.93
35908;BME280;22003;50.320;8.054;2024-02-21T09:26:58;100064.19;;;8.51;80.22
35908;BME280;22003;50.320;8.054;2024-02-21T09:29:23;100057.91;;;8.66;81.04
35908;BME280;22003;50.320;8.054;2024-02-21T09:31:48;100045.06;;;8.47;80.84
35908;BME280;22003;50.320;8.054;2024-02-21T09:34:13;100051.06;;;8.76;80.07
35908;BME280;22003;50.320;8.054;2024-02-21T09:36:39;100045.47;;;8.68;80.06
35908;BME280;22003;50.320;8.054;2024-02-21T09:39:05;100042.25;;;8.90;80.94
35908;BME280;22003;50.320;8.054;2024-02-21T09:41:31;99998.72;;;8.56;80.15
35908;BME280;22003;50.320;8.054;2024-02-21T09:43:57;100030.34;;;9.10;79.60
35908;BME280;22003;50.320;8.054;2024-02-21T09:46:52;100038.31;;;9.22;79.40
35908;BME280;22003;50.320;8.054;2024-02-21T09:49:31;100022.44;;;8.83;78.46
35908;BME280;22003;50.320;8.054;2024-02-21T09:52:05;100013.75;;;9.08;78.22
35908;BME280;22003;50.320;8.054;2024-02-21T09:54:32;100028.03;;;9.31;77.63
35908;BME280;22003;50.320;8.054;2024-02-21T09:56:59;100008.38;;;9.73;77.54
35908;BME280;22003;50.320;8.054;2024-02-21T09:59:24;99963.06;;;9.65;75.84
35908;BME280;22003;50.320;8.054;2024-02-21T10:01:52;100012.25;;;9.80;75.70
35908;BME280;22003;50.320;8.054;2024-02-21T10:04:17;100004.56;;;9.51;74.67
35908;BME280;22003;50.320;8.054;2024-02-21T10:06:44;100003.81;;;9.62;74.14
35908;BME280;22003;50.320;8.054;2024-02-21T10:09:20;99993.38;;;9.61;73.80
35908;BME280;22003;50.320;8.054;2024-02-21T10:11:45;99999.38;;;9.63;74.85
35908;BME280;22003;50.320;8.054;2024-02-21T10:14:10;99996.09;;;9.72;75.24
35908;BME280;22003;50.320;8.054;2024-02-21T10:16:35;99989.53;;;9.77;74.77
35908;BME280;22003;50.320;8.054;2024-02-21T10:19:02;99977.50;;;9.97;73.86
35908;BME280;22003;50.320;8.054;2024-02-21T10:21:28;99978.16;;;9.88;71.87
35908;BME280;22003;50.320;8.054;2024-02-21T10:23:54;99988.38;;;9.69;72.82
35908;BME280;22003;50.320;8.054;2024-02-21T10:26:20;99966.31;;;9.81;72.65
35908;BME280;22003;50.320;8.054;2024-02-21T10:28:47;99967.47;;;9.77;72.11
35908;BME280;22003;50.320;8.054;2024-02-21T10:31:26;99969.88;;;9.93;72.98
35908;BME280;22003;50.320;8.054;2024-02-21T10:33:59;99959.03;;;9.85;71.17
35908;BME280;22003;50.320;8.054;2024-02-21T10:36:28;99967.16;;;9.82;73.81
35908;BME280;22003;50.320;8.054;2024-02-21T10:38:53;99961.63;;;10.34;71.85
35908;BME280;22003;50.320;8.054;2024-02-21T10:41:21;99948.00;;;9.91;71.03
35908;BME280;22003;50.320;8.054;2024-02-21T10:43:51;99952.00;;;9.96;71.43
35908;BME280;22003;50.320;8.054;2024-02-21T10:46:19;99953.53;;;10.12;72.91
35908;BME280;22003;50.320;8.054;2024-02-21T10:48:46;99944.34;;;10.04;72.50
35908;BME280;22003;50.320;8.054;2024-02-21T10:51:19;99949.47;;;10.19;72.92
35908;BME280;22003;50.320;8.054;2024-02-21T10:54:24;99951.38;;;10.29;71.94
35908;BME280;22003;50.320;8.054;2024-02-21T10:56:56;99930.69;;;10.70;70.61
35908;BME280;22003;50.320;8.054;2024-02-21T10:59:22;99923.00;;;10.43;71.27
35908;BME280;22003;50.320;8.054;2024-02-21T11:01:48;99923.25;;;10.75;71.05
35908;BME280;22003;50.320;8.054;2024-02-21T11:04:14;99918.31;;;10.81;70.65
35908;BME280;22003;50.320;8.054;2024-02-21T11:06:40;99918.88;;;10.63;68.39
35908;BME280;22003;50.320;8.054;2024-02-21T11:09:07;99907.13;;;10.43;67.98
35908;BME280;22003;50.320;8.054;2024-02-21T11:12:01;99907.97;;;10.43;68.58
35908;BME280;22003;50.320;8.054;2024-02-21T11:14:28;99901.53;;;10.58;68.97
35908;BME280;22003;50.320;8.054;2024-02-21T11:16:57;99892.41;;;10.27;68.97
35908;BME280;22003;50.320;8.054;2024-02-21T11:19:25;99890.97;;;10.35;66.92
35908;BME280;22003;50.320;8.054;2024-02-21T11:21:52;99892.63;;;10.24;67.82
35908;BME280;22003;50.320;8.054;2024-02-21T11:24:32;99892.09;;;10.54;69.64
35908;BME280;22003;50.320;8.054;2024-02-21T11:27:12;99804.22;;;10.14;68.87
35908;BME280;22003;50.320;8.054;2024-02-21T11:29:47;99845.84;;;10.47;68.06
35908;BME280;22003;50.320;8.054;2024-02-21T11:32:17;99872.19;;;10.73;68.04
35908;BME280;22003;50.320;8.054;2024-02-21T11:35:00;99866.88;;;10.73;65.89
35908;BME280;22003;50.320;8.054;2024-02-21T11:37:30;99858.81;;;10.86;65.09
35908;BME280;22003;50.320;8.054;2024-02-21T11:39:58;99850.50;;;10.79;65.33
35908;BME280;22003;50.320;8.054;2024-02-21T11:42:27;99850.41;;;11.03;64.62
35908;BME280;22003;50.320;8.054;2024-02-21T11:44:53;99836.91;;;10.83;65.21
35908;BME280;22003;50.320;8.054;2024-02-21T11:47:22;99834.31;;;10.60;65.26
35908;BME280;22003;50.320;8.054;2024-02-21T11:49:48;99831.31;;;10.64;65.36
35908;BME280;22003;50.320;8.054;2024-02-21T11:52:15;99829.03;;;10.71;65.49
35908;BME280;22003;50.320;8.054;2024-02-21T11:54:40;99810.88;;;11.11;65.26
35908;BME280;22003;50.320;8.054;2024-02-21T11:57:06;99799.84;;;11.38;64.29
35908;BME280;22003;50.320;8.054;2024-02-21T11:59:32;99803.97;;;11.42;64.41
35908;BME280;22003;50.320;8.054;2024-02-21T12:01:58;99807.72;;;11.40;65.62
35908;BME280;22003;50.320;8.054;2024-02-21T12:04:24;99791.06;;;11.37;63.45
35908;BME280;22003;50.320;8.054;2024-02-21T12:06:50;99785.38;;;11.42;65.64
35908;BME280;22003;50.320;8.054;2024-02-21T12:09:17;99772.56;;;11.58;63.15
35908;BME280;22003;50.320;8.054;2024-02-21T12:11:43;99771.72;;;11.58;63.85
35908;BME280;22003;50.320;8.054;2024-02-21T12:14:09;99758.13;;;11.51;62.22
35908;BME280;22003;50.320;8.054;2024-02-21T12:16:34;99753.06;;;11.05;62.18
35908;BME280;22003;50.320;8.054;2024-02-21T12:19:02;99744.59;;;11.22;62.11
35908;BME280;22003;50.320;8.054;2024-02-21T12:21:32;99746.09;;;11.36;63.31
35908;BME280;22003;50.320;8.054;2024-02-21T12:24:00;99668.09;;;11.06;64.91
35908;BME280;22003;50.320;8.054;2024-02-21T12:26:25;99727.75;;;11.76;65.02
35908;BME280;22003;50.320;8.054;2024-02-21T12:28:52;99725.28;;;11.63;66.92
35908;BME280;22003;50.320;8.054;2024-02-21T12:31:18;99719.59;;;11.68;66.30
35908;BME280;22003;50.320;8.054;2024-02-21T12:33:43;99721.97;;;11.71;65.42
35908;BME280;22003;50.320;8.054;2024-02-21T12:36:09;99722.06;;;11.17;64.56
35908;BME280;22003;50.320;8.054;2024-02-21T12:38:35;99722.94;;;11.49;62.97
35908;BME280;22003;50.320;8.054;2024-02-21T12:41:01;99713.72;;;11.53;61.67
35908;BME280;22003;50.320;8.054;2024-02-21T12:43:26;99722.50;;;11.33;64.30
35908;BME280;22003;50.320;8.054;2024-02-21T12:45:51;99704.59;;;11.46;65.65
35908;BME280;22003;50.320;8.054;2024-02-21T12:48:17;99704.13;;;11.41;65.59
35908;BME280;22003;50.320;8.054;2024-02-21T12:50:49;99700.09;;;11.15;66.50